Time;durP1;ratioP1;P1;durP2;ratioP2;P2;SDS_P1;SDS_P2;PMS_P1;PMS_P2;Temp;Humidity;BMP_temperature;BMP_pressure;BME280_temperature;BME280_humidity;BME280_pressure;Samples;Min_cycle;Max_cycle;Signal;HPM_P1;HPM_P2
2021/08/26 00:06:16;;;;;;;16.42;8.07;;;16.20;93.20;;;;;;5096782;28;20159;-81
2021/08/26 00:08:42;;;;;;;17.05;8.00;;;16.00;93.40;;;;;;5079054;28;20168;-80
2021/08/26 00:11:08;;;;;;;14.97;8.10;;;16.00;93.60;;;;;;5078768;28;20182;-81
2021/08/26 00:13:35;;;;;;;15.52;7.97;;;15.90;93.70;;;;;;5078804;28;20474;-81
2021/08/26 00:16:01;;;;;;;21.98;9.80;;;15.90;93.90;;;;;;5078575;28;20171;-81
2021/08/26 00:18:27;;;;;;;19.45;9.55;;;15.90;93.70;;;;;;5078391;28;20171;-81
2021/08/26 00:20:53;;;;;;;16.20;8.40;;;15.80;94.20;;;;;;5079366;28;20219;-82
2021/08/26 00:23:22;;;;;;;16.80;8.23;;;15.80;94.60;;;;;;5079570;28;20663;-82
2021/08/26 00:25:50;;;;;;;19.10;8.27;;;15.70;94.90;;;;;;5079712;28;20191;-82
2021/08/26 00:28:17;;;;;;;15.10;7.72;;;15.60;95.40;;;;;;5079162;28;20168;-82
2021/08/26 00:30:43;;;;;;;14.65;7.95;;;15.60;95.60;;;;;;5079874;28;20645;-82
2021/08/26 00:33:10;;;;;;;18.27;8.30;;;15.50;95.80;;;;;;5079343;28;20168;-82
2021/08/26 00:35:36;;;;;;;20.23;8.90;;;15.50;95.60;;;;;;5079631;28;20198;-82
2021/08/26 00:38:02;;;;;;;16.73;7.80;;;15.50;95.60;;;;;;5079768;28;20239;-82
2021/08/26 00:40:28;;;;;;;17.13;7.88;;;15.50;95.80;;;;;;5079681;28;20490;-82
2021/08/26 00:43:01;;;;;;;20.38;7.88;;;15.40;95.90;;;;;;5080436;28;20168;-82
2021/08/26 00:45:32;;;;;;;23.17;7.85;;;15.40;95.90;;;;;;5079499;28;20191;-82
2021/08/26 00:47:58;;;;;;;18.75;8.63;;;15.40;95.80;;;;;;5079796;28;20192;-82
2021/08/26 00:50:25;;;;;;;19.17;7.90;;;15.40;95.80;;;;;;5079336;28;20186;-82
2021/08/26 00:52:53;;;;;;;16.10;8.23;;;15.40;95.70;;;;;;5083645;28;20196;-79
2021/08/26 00:55:19;;;;;;;20.58;8.45;;;15.40;95.50;;;;;;5083091;28;20199;-82
2021/08/26 00:57:45;;;;;;;15.18;8.18;;;15.40;95.60;;;;;;5082080;28;20179;-82
2021/08/26 01:00:12;;;;;;;22.33;9.37;;;15.40;95.70;;;;;;5082690;28;20180;-82
2021/08/26 01:02:47;;;;;;;17.98;9.20;;;15.40;95.70;;;;;;5082303;28;20680;-82
2021/08/26 01:05:28;;;;;;;19.77;8.73;;;15.40;95.60;;;;;;5081792;28;20436;-82
2021/08/26 01:08:03;;;;;;;17.88;8.48;;;15.40;95.50;;;;;;5081999;28;20187;-82
2021/08/26 01:10:30;;;;;;;14.88;7.63;;;15.40;95.60;;;;;;5082453;28;20202;-83
2021/08/26 01:12:59;;;;;;;14.85;8.48;;;15.30;95.70;;;;;;5082647;28;20663;-82
2021/08/26 01:15:26;;;;;;;15.32;8.02;;;15.20;96.00;;;;;;5082406;28;20195;-82
2021/08/26 01:17:53;;;;;;;18.30;8.73;;;15.20;95.90;;;;;;5082657;28;20164;-82
2021/08/26 01:20:20;;;;;;;16.83;8.05;;;15.20;96.00;;;;;;5082775;28;20187;-82
2021/08/26 01:22:46;;;;;;;15.20;7.95;;;15.10;96.10;;;;;;5083106;28;20208;-82
2021/08/26 01:25:18;;;;;;;16.52;7.90;;;15.10;96.10;;;;;;5082458;28;20219;-81
2021/08/26 01:27:53;;;;;;;19.45;8.95;;;15.10;96.10;;;;;;5082251;28;20294;-82
2021/08/26 01:30:22;;;;;;;15.65;7.63;;;15.00;96.30;;;;;;5082719;28;20182;-82
2021/08/26 01:32:50;;;;;;;15.73;8.45;;;15.00;96.40;;;;;;5082527;28;20172;-82
2021/08/26 01:35:18;;;;;;;17.13;8.20;;;15.00;96.60;;;;;;5082080;28;20191;-82
2021/08/26 01:37:45;;;;;;;17.08;8.00;;;15.00;96.70;;;;;;5082637;28;20198;-81
2021/08/26 01:40:11;;;;;;;18.63;8.73;;;15.00;96.70;;;;;;5082286;28;20640;-82
2021/08/26 01:42:37;;;;;;;18.30;8.18;;;15.00;96.70;;;;;;5082241;28;20607;-82
2021/08/26 01:45:05;;;;;;;22.47;8.07;;;15.00;96.80;;;;;;5082422;28;20245;-82
2021/08/26 01:47:30;;;;;;;15.95;7.70;;;14.90;97.20;;;;;;5082190;28;20420;-82
2021/08/26 01:49:56;;;;;;;18.23;8.87;;;14.90;97.30;;;;;;5082123;28;20626;-82
2021/08/26 01:52:24;;;;;;;15.17;8.50;;;14.90;97.30;;;;;;5081611;28;20926;-82
2021/08/26 01:55:04;;;;;;;21.40;10.05;;;14.80;97.40;;;;;;5081264;28;20735;-82
2021/08/26 01:57:31;;;;;;;19.80;9.75;;;14.90;97.40;;;;;;5081361;28;20477;-82
2021/08/26 02:00:04;;;;;;;22.88;8.35;;;14.80;97.80;;;;;;5081546;28;20172;-82
2021/08/26 02:02:30;;;;;;;19.00;9.45;;;14.80;97.80;;;;;;5081172;28;20261;-82
2021/08/26 02:04:56;;;;;;;19.83;9.10;;;14.80;97.70;;;;;;5081562;28;20183;-82
2021/08/26 02:07:22;;;;;;;23.93;9.90;;;14.80;97.60;;;;;;5081982;28;20422;-82
2021/08/26 02:09:48;;;;;;;22.90;9.60;;;14.80;97.70;;;;;;5081499;28;20172;-82
2021/08/26 02:12:13;;;;;;;18.00;9.40;;;14.80;97.70;;;;;;5081252;28;20501;-82
2021/08/26 02:14:39;;;;;;;23.20;9.80;;;14.80;97.70;;;;;;5081502;28;20437;-81
2021/08/26 02:17:05;;;;;;;16.50;8.37;;;14.80;97.70;;;;;;5081023;28;20551;-82
2021/08/26 02:19:31;;;;;;;22.10;10.37;;;14.80;97.60;;;;;;5081837;28;20802;-82
2021/08/26 02:21:57;;;;;;;15.77;7.87;;;14.70;97.50;;;;;;5081250;28;20260;-82
2021/08/26 02:24:22;;;;;;;22.42;9.00;;;14.70;97.30;;;;;;5079801;28;20194;-82
2021/08/26 02:26:48;;;;;;;18.87;9.30;;;14.70;97.40;;;;;;5079796;28;20217;-82
2021/08/26 02:29:14;;;;;;;24.35;9.23;;;14.60;97.80;;;;;;5080468;28;20655;-82
2021/08/26 02:31:40;;;;;;;20.93;9.00;;;14.60;97.90;;;;;;5080490;28;20229;-82
2021/08/26 02:34:06;;;;;;;15.10;9.10;;;14.60;97.70;;;;;;5080277;28;20290;-82
2021/08/26 02:36:31;;;;;;;18.13;8.43;;;14.60;97.70;;;;;;5080522;28;20505;-82
2021/08/26 02:38:57;;;;;;;15.10;7.10;;;14.60;97.60;;;;;;5080583;28;20579;-82
2021/08/26 02:41:23;;;;;;;16.00;8.17;;;14.60;97.60;;;;;;5080657;28;20468;-82
2021/08/26 02:43:49;;;;;;;24.15;8.70;;;14.60;97.70;;;;;;5079663;28;20223;-82
2021/08/26 02:46:15;;;;;;;14.30;7.63;;;14.60;97.40;;;;;;5080686;28;20194;-82
2021/08/26 02:48:40;;;;;;;15.10;8.27;;;14.60;97.30;;;;;;5080143;28;20172;-82
2021/08/26 02:51:06;;;;;;;18.83;8.67;;;14.60;97.50;;;;;;5080608;28;20182;-82
2021/08/26 02:53:32;;;;;;;15.63;8.80;;;14.60;97.70;;;;;;5080651;28;20401;-82
2021/08/26 02:55:58;;;;;;;20.37;7.73;;;14.50;97.90;;;;;;5080306;28;20439;-82
2021/08/26 02:58:25;;;;;;;19.83;8.83;;;14.60;97.80;;;;;;5080790;28;20520;-82
2021/08/26 03:00:50;;;;;;;22.63;8.70;;;14.60;97.50;;;;;;5080326;28;20454;-82
2021/08/26 03:03:16;;;;;;;18.40;8.32;;;14.60;97.70;;;;;;5080685;28;20646;-82
2021/08/26 03:05:42;;;;;;;20.57;7.97;;;14.60;97.80;;;;;;5080351;28;20186;-82
2021/08/26 03:08:08;;;;;;;16.73;8.40;;;14.60;97.80;;;;;;5098647;28;20167;-81
2021/08/26 03:10:34;;;;;;;16.10;8.27;;;14.60;97.80;;;;;;5079616;28;20191;-82
2021/08/26 03:12:59;;;;;;;17.17;9.07;;;14.60;98.00;;;;;;5078949;28;20477;-82
2021/08/26 03:15:26;;;;;;;22.97;9.10;;;14.60;98.10;;;;;;5078611;28;20302;-82
2021/08/26 03:17:51;;;;;;;28.08;9.40;;;14.50;98.30;;;;;;5078236;28;20172;-82
2021/08/26 03:20:20;;;;;;;16.53;8.00;;;14.50;98.40;;;;;;5078367;28;20205;-82
2021/08/26 03:22:49;;;;;;;15.05;8.23;;;14.40;98.80;;;;;;5078447;28;20206;-82
2021/08/26 03:25:15;;;;;;;19.95;8.85;;;14.40;99.00;;;;;;5078209;28;20556;-82
2021/08/26 03:27:41;;;;;;;25.45;9.70;;;14.40;99.10;;;;;;5078627;28;20175;-81
2021/08/26 03:30:07;;;;;;;15.13;8.13;;;14.40;98.90;;;;;;5078884;28;20171;-82
2021/08/26 03:32:34;;;;;;;21.05;10.85;;;14.40;98.70;;;;;;5078373;28;20422;-82
2021/08/26 03:35:00;;;;;;;23.17;12.05;;;14.40;98.90;;;;;;5077931;28;20188;-82
2021/08/26 03:37:25;;;;;;;21.45;9.70;;;14.40;98.90;;;;;;5078299;28;20513;-81
2021/08/26 03:39:51;;;;;;;21.67;10.20;;;14.40;98.50;;;;;;5078635;28;20175;-82
2021/08/26 03:42:17;;;;;;;17.87;8.87;;;14.40;98.50;;;;;;5078474;28;20205;-81
2021/08/26 03:44:43;;;;;;;23.42;9.40;;;14.40;98.60;;;;;;5078211;28;20721;-82
2021/08/26 03:47:10;;;;;;;20.90;9.53;;;14.50;98.30;;;;;;5078202;28;20171;-82
2021/08/26 03:49:36;;;;;;;16.25;9.32;;;14.50;98.30;;;;;;5078218;28;20402;-81
2021/08/26 03:52:02;;;;;;;16.20;9.80;;;14.50;98.30;;;;;;5078380;28;20168;-82
2021/08/26 03:54:28;;;;;;;15.27;8.15;;;14.50;98.10;;;;;;5078457;28;20566;-82
2021/08/26 03:56:54;;;;;;;20.85;10.70;;;14.50;98.10;;;;;;5078363;28;20171;-82
2021/08/26 03:59:20;;;;;;;25.70;11.60;;;14.50;98.00;;;;;;5078384;28;20172;-82
2021/08/26 04:01:46;;;;;;;20.13;9.70;;;14.60;97.80;;;;;;5079380;28;20465;-82
2021/08/26 04:04:12;;;;;;;18.27;10.10;;;14.60;97.50;;;;;;5079445;28;20502;-81
2021/08/26 04:06:38;;;;;;;21.97;8.57;;;14.60;97.40;;;;;;5078926;28;20200;-81
2021/08/26 04:09:04;;;;;;;15.80;9.03;;;14.70;97.40;;;;;;5078609;28;20168;-81
2021/08/26 04:11:29;;;;;;;23.33;10.67;;;14.60;97.30;;;;;;5078954;28;20576;-81
2021/08/26 04:13:55;;;;;;;15.87;9.23;;;14.60;97.10;;;;;;5079323;28;20436;-82
2021/08/26 04:16:21;;;;;;;15.60;8.47;;;14.60;97.30;;;;;;5078801;28;20505;-82
2021/08/26 04:18:47;;;;;;;21.90;9.10;;;14.60;97.40;;;;;;5097324;28;20438;-82
2021/08/26 04:21:13;;;;;;;18.23;9.87;;;14.60;97.30;;;;;;5079143;28;20454;-82
2021/08/26 04:23:38;;;;;;;19.20;9.10;;;14.70;97.40;;;;;;5078722;28;20677;-82
2021/08/26 04:26:04;;;;;;;27.90;10.67;;;14.70;97.10;;;;;;5079837;28;20642;-82
2021/08/26 04:28:30;;;;;;;17.43;8.67;;;14.70;97.00;;;;;;5082810;28;20168;-82
2021/08/26 04:30:55;;;;;;;18.37;8.73;;;14.70;97.10;;;;;;5082071;28;20636;-82
2021/08/26 04:33:21;;;;;;;17.27;8.00;;;14.70;97.20;;;;;;5082184;28;20175;-82
2021/08/26 04:35:47;;;;;;;18.00;10.10;;;14.70;97.20;;;;;;5082164;28;20175;-82
2021/08/26 04:38:13;;;;;;;20.03;9.17;;;14.70;97.20;;;;;;5083269;28;20273;-81
2021/08/26 04:40:39;;;;;;;20.17;9.50;;;14.70;97.00;;;;;;5082802;28;20195;-81
2021/08/26 04:43:05;;;;;;;16.88;8.50;;;14.70;97.20;;;;;;5082592;28;20168;-81
2021/08/26 04:45:31;;;;;;;16.00;8.60;;;14.80;97.20;;;;;;5082899;28;20199;-82
2021/08/26 04:47:57;;;;;;;20.02;9.35;;;14.80;97.20;;;;;;5082101;28;20187;-82
2021/08/26 04:50:23;;;;;;;20.80;9.47;;;14.80;97.10;;;;;;5082662;28;20547;-82
2021/08/26 04:52:49;;;;;;;15.47;8.43;;;14.90;97.10;;;;;;5082206;28;20782;-82
2021/08/26 04:55:15;;;;;;;18.00;8.53;;;14.90;96.80;;;;;;5081081;28;20432;-82
2021/08/26 04:57:41;;;;;;;20.63;9.60;;;14.90;96.90;;;;;;5082156;28;20478;-82
2021/08/26 05:00:07;;;;;;;15.73;8.23;;;14.90;97.00;;;;;;5081949;28;20936;-82
2021/08/26 05:02:33;;;;;;;15.50;7.30;;;14.80;97.20;;;;;;5081257;28;20203;-82
2021/08/26 05:04:59;;;;;;;18.40;8.73;;;14.90;97.00;;;;;;5081559;28;20616;-82
2021/08/26 05:07:25;;;;;;;17.67;9.20;;;14.80;97.30;;;;;;5081567;28;20409;-82
2021/08/26 05:09:51;;;;;;;19.93;8.93;;;14.90;97.30;;;;;;5081088;28;20211;-82
2021/08/26 05:12:16;;;;;;;17.07;9.77;;;14.90;97.10;;;;;;5081357;28;20179;-82
2021/08/26 05:14:42;;;;;;;17.90;8.73;;;14.90;96.90;;;;;;5080675;28;20195;-82
2021/08/26 05:17:08;;;;;;;19.07;9.03;;;15.00;96.90;;;;;;5081041;28;20544;-82
2021/08/26 05:19:34;;;;;;;16.20;7.90;;;15.00;96.40;;;;;;5082339;28;20437;-82
2021/08/26 05:22:00;;;;;;;15.57;8.40;;;15.00;96.80;;;;;;5082275;28;20445;-82
2021/08/26 05:24:26;;;;;;;19.03;8.90;;;15.00;96.90;;;;;;5081426;28;20432;-82
2021/08/26 05:26:52;;;;;;;18.48;8.70;;;15.10;96.70;;;;;;5082448;28;20410;-82
2021/08/26 05:29:19;;;;;;;15.70;8.93;;;15.10;96.30;;;;;;5081399;28;20172;-82
2021/08/26 05:31:45;;;;;;;15.70;8.30;;;15.10;96.40;;;;;;5081679;28;20172;-82
2021/08/26 05:34:11;;;;;;;19.35;9.73;;;15.10;96.40;;;;;;5081084;28;20721;-82
2021/08/26 05:36:37;;;;;;;14.15;7.85;;;15.10;96.70;;;;;;5081348;28;20171;-82
2021/08/26 05:39:03;;;;;;;15.27;8.38;;;15.20;96.60;;;;;;5081766;28;20172;-82
2021/08/26 05:41:29;;;;;;;22.25;9.20;;;15.10;96.70;;;;;;5082185;28;20196;-82
2021/08/26 05:43:55;;;;;;;26.10;11.57;;;15.10;96.50;;;;;;5082471;28;20188;-82
2021/08/26 05:46:20;;;;;;;26.93;10.17;;;15.10;96.80;;;;;;5081837;28;20178;-82
2021/08/26 05:48:46;;;;;;;23.87;11.00;;;15.10;96.70;;;;;;5082112;28;20168;-82
2021/08/26 05:51:12;;;;;;;23.23;9.93;;;15.10;96.80;;;;;;5082312;28;20413;-82
2021/08/26 05:53:38;;;;;;;21.27;10.40;;;15.10;96.70;;;;;;5082045;28;20488;-81
2021/08/26 05:56:04;;;;;;;18.70;10.17;;;15.10;96.80;;;;;;5082158;28;20188;-82
2021/08/26 05:58:30;;;;;;;19.15;9.73;;;15.20;96.80;;;;;;5081816;28;20175;-82
2021/08/26 06:00:55;;;;;;;22.97;9.60;;;15.20;96.40;;;;;;5080934;28;20203;-82
2021/08/26 06:03:21;;;;;;;16.87;9.03;;;15.30;96.50;;;;;;5081325;28;20417;-82
2021/08/26 06:05:47;;;;;;;29.67;10.00;;;15.40;96.40;;;;;;5081543;28;20176;-82
2021/08/26 06:08:13;;;;;;;19.83;9.20;;;15.40;96.40;;;;;;5081357;28;20398;-82
2021/08/26 06:10:38;;;;;;;18.87;8.93;;;15.50;95.90;;;;;;5099135;28;20172;-82
2021/08/26 06:13:04;;;;;;;26.90;9.43;;;15.60;95.70;;;;;;5081481;28;20167;-82
2021/08/26 06:15:31;;;;;;;28.87;9.60;;;15.70;95.50;;;;;;5080700;28;20418;-82
2021/08/26 06:17:56;;;;;;;16.17;8.32;;;15.60;95.40;;;;;;5080986;28;20512;-82
2021/08/26 06:20:22;;;;;;;19.60;9.00;;;15.60;95.50;;;;;;5081282;28;20203;-82
2021/08/26 06:22:48;;;;;;;20.87;8.93;;;15.60;95.50;;;;;;5085152;28;20745;-82
2021/08/26 06:25:14;;;;;;;19.90;8.67;;;15.60;95.80;;;;;;5085690;28;20255;-81
2021/08/26 06:27:40;;;;;;;16.73;8.18;;;15.50;95.60;;;;;;5085117;28;20263;-81
2021/08/26 06:30:08;;;;;;;15.98;8.50;;;15.50;96.00;;;;;;5084473;28;20566;-82
2021/08/26 06:32:34;;;;;;;16.67;8.40;;;15.60;96.00;;;;;;5084723;28;20282;-82
2021/08/26 06:35:02;;;;;;;17.13;8.00;;;15.70;96.30;;;;;;5085018;28;20282;-81
2021/08/26 06:37:28;;;;;;;14.23;7.85;;;15.80;95.90;;;;;;5084931;28;20418;-81
2021/08/26 06:39:53;;;;;;;18.17;8.57;;;15.80;95.30;;;;;;5084281;28;20179;-82
2021/08/26 06:42:19;;;;;;;27.87;8.27;;;15.90;95.50;;;;;;5084654;28;20450;-82
2021/08/26 06:44:45;;;;;;;18.63;9.00;;;15.90;95.70;;;;;;5084177;28;20200;-81
2021/08/26 06:47:11;;;;;;;18.63;8.83;;;15.90;94.50;;;;;;5085042;28;20417;-82
2021/08/26 06:49:38;;;;;;;26.70;9.48;;;15.90;94.30;;;;;;5067029;28;20430;-82
2021/08/26 06:52:04;;;;;;;26.10;10.90;;;15.90;94.60;;;;;;5084517;28;20250;-82
2021/08/26 06:54:31;;;;;;;20.33;11.38;;;15.90;94.30;;;;;;5084193;28;20214;-82
2021/08/26 06:56:57;;;;;;;19.38;8.93;;;16.00;94.50;;;;;;5084750;28;20183;-81
2021/08/26 06:59:22;;;;;;;19.43;9.90;;;16.00;94.50;;;;;;5083599;28;20172;-81
2021/08/26 07:01:48;;;;;;;17.10;8.63;;;16.10;94.30;;;;;;5084486;28;20793;-81
2021/08/26 07:04:14;;;;;;;18.93;8.80;;;16.20;94.20;;;;;;5084847;28;20214;-82
2021/08/26 07:06:40;;;;;;;21.77;11.50;;;16.20;94.20;;;;;;5083873;28;20930;-82
2021/08/26 07:09:06;;;;;;;19.10;8.77;;;16.20;94.00;;;;;;5083947;28;20187;-82
2021/08/26 07:11:31;;;;;;;18.00;9.32;;;16.30;93.30;;;;;;5083551;28;20475;-82
2021/08/26 07:13:57;;;;;;;20.10;8.90;;;16.40;93.40;;;;;;5083135;28;20227;-82
2021/08/26 07:16:23;;;;;;;23.83;9.50;;;16.40;93.50;;;;;;5084098;28;20485;-82
2021/08/26 07:18:49;;;;;;;18.63;9.27;;;16.40;93.60;;;;;;5084292;28;20452;-82
2021/08/26 07:21:14;;;;;;;25.70;8.73;;;16.50;93.90;;;;;;5083141;28;20203;-82
2021/08/26 07:23:40;;;;;;;20.30;8.90;;;16.50;93.30;;;;;;5101822;28;20183;-82
2021/08/26 07:26:06;;;;;;;19.53;8.10;;;16.60;92.90;;;;;;5084880;28;20414;-81
2021/08/26 07:28:32;;;;;;;18.13;9.10;;;16.60;93.00;;;;;;5084123;28;20203;-81
2021/08/26 07:30:58;;;;;;;16.60;9.43;;;16.70;92.00;;;;;;5084011;28;20505;-82
2021/08/26 07:33:24;;;;;;;21.53;10.83;;;16.80;92.30;;;;;;5083594;28;20179;-82
2021/08/26 07:35:49;;;;;;;26.53;10.57;;;16.80;91.90;;;;;;5083493;28;20409;-81
2021/08/26 07:38:15;;;;;;;24.47;9.30;;;16.90;90.90;;;;;;5084817;28;20778;-81
2021/08/26 07:40:41;;;;;;;20.13;10.30;;;16.90;91.70;;;;;;5083452;28;20918;-81
2021/08/26 07:43:07;;;;;;;23.40;12.57;;;17.00;91.10;;;;;;5084270;28;20406;-82
2021/08/26 07:45:32;;;;;;;22.03;11.03;;;17.00;90.50;;;;;;5083789;28;20188;-82
2021/08/26 07:47:58;;;;;;;27.33;11.83;;;17.10;91.10;;;;;;5083802;28;20176;-82
2021/08/26 07:50:24;;;;;;;25.13;11.60;;;17.10;91.00;;;;;;5084042;28;20187;-82
2021/08/26 07:52:50;;;;;;;19.10;10.67;;;17.20;89.60;;;;;;5083427;28;20179;-82
2021/08/26 07:55:15;;;;;;;30.67;11.30;;;17.20;90.10;;;;;;5083097;28;20446;-81
2021/08/26 07:57:41;;;;;;;23.07;10.70;;;17.20;88.70;;;;;;5083851;28;20172;-81
2021/08/26 08:00:07;;;;;;;25.37;12.53;;;17.20;89.90;;;;;;5084297;28;20409;-82
2021/08/26 08:02:33;;;;;;;31.13;11.10;;;17.20;90.10;;;;;;5086924;28;20199;-82
2021/08/26 08:04:59;;;;;;;25.90;8.57;;;17.20;89.20;;;;;;5087029;28;20244;-82
2021/08/26 08:07:25;;;;;;;17.33;10.43;;;17.20;89.90;;;;;;5088037;28;20168;-81
2021/08/26 08:09:52;;;;;;;20.67;10.00;;;17.20;88.30;;;;;;5087008;28;20409;-81
2021/08/26 08:12:18;;;;;;;23.73;9.23;;;17.20;88.30;;;;;;5087404;28;20418;-81
2021/08/26 08:14:44;;;;;;;18.60;8.93;;;17.20;89.20;;;;;;5087351;28;20661;-81
2021/08/26 08:17:10;;;;;;;19.77;9.33;;;17.20;87.40;;;;;;5087260;28;20459;-81
2021/08/26 08:19:36;;;;;;;20.50;8.48;;;17.20;87.10;;;;;;5087227;28;20425;-81
2021/08/26 08:22:02;;;;;;;19.63;9.40;;;17.20;87.60;;;;;;5086798;28;20199;-81
2021/08/26 08:24:28;;;;;;;19.30;8.70;;;17.20;87.40;;;;;;5087311;28;20203;-81
2021/08/26 08:26:55;;;;;;;28.35;11.98;;;17.10;88.00;;;;;;5086923;28;20199;-81
2021/08/26 08:29:21;;;;;;;22.73;10.30;;;17.10;88.80;;;;;;5087119;28;20172;-81
2021/08/26 08:31:47;;;;;;;20.08;9.32;;;17.10;89.50;;;;;;5087308;28;20206;-82
2021/08/26 08:34:13;;;;;;;18.73;10.90;;;17.00;90.60;;;;;;5086798;28;20200;-82
2021/08/26 08:36:39;;;;;;;24.23;12.63;;;16.90;91.90;;;;;;5086987;28;20183;-81
2021/08/26 08:39:06;;;;;;;24.70;12.27;;;16.80;93.30;;;;;;5086596;28;20174;-82
2021/08/26 08:41:33;;;;;;;27.60;12.75;;;16.60;94.30;;;;;;5086338;28;20474;-81
2021/08/26 08:44:02;;;;;;;25.42;12.55;;;16.50;95.80;;;;;;5086126;28;20244;-82
2021/08/26 08:46:28;;;;;;;30.77;13.35;;;16.50;96.40;;;;;;5086824;28;20570;-81
2021/08/26 08:48:56;;;;;;;30.10;13.30;;;16.50;97.10;;;;;;5086402;28;20168;-81
2021/08/26 08:51:23;;;;;;;28.13;13.18;;;16.50;97.70;;;;;;5086282;28;20540;-82
2021/08/26 08:53:49;;;;;;;25.60;13.57;;;16.50;97.60;;;;;;5086971;28;20225;-81
2021/08/26 08:56:17;;;;;;;23.45;13.52;;;16.40;97.30;;;;;;5086316;28;20187;-81
2021/08/26 08:58:43;;;;;;;30.25;14.88;;;16.50;98.30;;;;;;5085961;28;20537;-82
2021/08/26 09:01:13;;;;;;;26.70;14.77;;;16.40;98.30;;;;;;5086524;28;20206;-82
2021/08/26 09:03:39;;;;;;;25.98;12.43;;;16.50;98.50;;;;;;5086679;28;20569;-82
2021/08/26 09:06:08;;;;;;;32.50;14.30;;;16.50;97.60;;;;;;5086626;28;20168;-81
2021/08/26 09:08:34;;;;;;;30.33;14.10;;;16.50;97.30;;;;;;5086041;28;20509;-82
2021/08/26 09:11:21;;;;;;;26.75;12.40;;;16.50;98.10;;;;;;5085779;28;20200;-82
2021/08/26 09:13:47;;;;;;;20.67;10.85;;;16.50;97.20;;;;;;5097998;28;20191;-82
2021/08/26 09:16:15;;;;;;;31.13;14.07;;;16.60;98.10;;;;;;5093258;28;20171;-81
2021/08/26 09:18:41;;;;;;;38.40;15.05;;;16.80;98.30;;;;;;5085938;28;20443;-81
2021/08/26 09:21:10;;;;;;;23.63;13.68;;;16.90;97.10;;;;;;5085480;28;20204;-81
2021/08/26 09:23:55;;;;;;;26.52;12.35;;;17.00;98.00;;;;;;5085581;28;20172;-81
2021/08/26 09:26:26;;;;;;;21.60;13.23;;;17.10;97.50;;;;;;5085940;28;20168;-81
2021/08/26 09:28:53;;;;;;;28.48;14.32;;;17.10;98.30;;;;;;5086194;28;20168;-81
2021/08/26 09:31:23;;;;;;;24.35;13.25;;;17.20;97.90;;;;;;5086356;28;20541;-81
2021/08/26 09:33:52;;;;;;;25.15;12.93;;;17.10;98.10;;;;;;5085340;28;20752;-81
2021/08/26 09:36:20;;;;;;;21.80;12.02;;;17.20;98.90;;;;;;5085436;28;20182;-82
2021/08/26 09:38:55;;;;;;;30.75;13.13;;;17.20;97.20;;;;;;5085252;28;20172;-81
2021/08/26 09:41:48;;;;;;;26.45;13.27;;;17.30;99.10;;;;;;5085215;28;20199;-82
2021/08/26 09:44:17;;;;;;;23.00;12.90;;;17.50;99.10;;;;;;5085653;28;20352;-81
2021/08/26 09:46:48;;;;;;;25.58;13.30;;;17.60;98.20;;;;;;5085108;28;20528;-81
2021/08/26 09:49:16;;;;;;;23.30;13.00;;;17.60;97.40;;;;;;5103252;28;20152;-82
2021/08/26 09:51:43;;;;;;;23.33;12.82;;;17.50;97.30;;;;;;5085415;28;20239;-82
2021/08/26 09:54:37;;;;;;;22.90;13.40;;;17.30;97.80;;;;;;5084178;28;20203;-82
2021/08/26 09:57:05;;;;;;;26.02;12.18;;;17.00;99.10;;;;;;5084162;28;20179;-82
2021/08/26 09:59:45;;;;;;;22.92;13.75;;;17.00;99.10;;;;;;5084841;28;20598;-82
2021/08/26 10:02:11;;;;;;;25.55;13.27;;;17.10;99.10;;;;;;5083415;28;20195;-82
2021/08/26 10:04:38;;;;;;;23.10;12.95;;;17.30;99.10;;;;;;5084052;28;20192;-82
2021/08/26 10:07:04;;;;;;;15.73;9.45;;;17.50;99.10;;;;;;5083772;28;20176;-82
2021/08/26 10:09:30;;;;;;;15.30;9.23;;;17.60;98.00;;;;;;5084892;28;20172;-82
2021/08/26 10:11:56;;;;;;;12.23;7.13;;;17.60;98.50;;;;;;5083512;28;20428;-83
2021/08/26 10:14:24;;;;;;;13.20;6.75;;;17.50;96.90;;;;;;5083825;28;20433;-83
2021/08/26 10:16:50;;;;;;;15.52;8.60;;;17.50;96.90;;;;;;5084453;28;20175;-83
2021/08/26 10:19:16;;;;;;;11.30;7.18;;;17.30;98.00;;;;;;5084070;28;20183;-82
2021/08/26 10:21:45;;;;;;;15.00;8.70;;;17.20;98.60;;;;;;5083571;28;20683;-82
2021/08/26 10:24:13;;;;;;;11.00;5.85;;;17.00;99.00;;;;;;5083498;28;20425;-83
2021/08/26 10:26:43;;;;;;;11.30;5.57;;;16.90;99.10;;;;;;5083351;28;20207;-83
2021/08/26 10:29:10;;;;;;;12.32;6.60;;;16.80;99.10;;;;;;5082463;28;20188;-82
2021/08/26 10:31:38;;;;;;;9.48;5.63;;;16.70;99.10;;;;;;5083647;28;20176;-83
2021/08/26 10:34:08;;;;;;;7.85;5.00;;;16.60;99.10;;;;;;5082883;28;20229;-83
2021/08/26 10:36:46;;;;;;;7.75;4.45;;;16.50;99.10;;;;;;5083043;28;20232;-84
2021/08/26 10:39:39;;;;;;;5.85;3.50;;;16.50;99.10;;;;;;5083596;28;20316;-83
2021/08/26 10:42:22;;;;;;;5.80;3.67;;;16.30;99.10;;;;;;5080691;28;20207;-83
2021/08/26 10:45:05;;;;;;;5.50;3.28;;;16.20;99.10;;;;;;5082335;28;20241;-83
2021/08/26 10:47:50;;;;;;;10.52;3.95;;;16.20;99.10;;;;;;5082121;28;20174;-83
2021/08/26 10:50:21;;;;;;;7.22;4.18;;;16.30;99.10;;;;;;5081925;28;20168;-82
2021/08/26 10:52:54;;;;;;;6.78;4.35;;;16.40;99.10;;;;;;5083022;28;20176;-83
2021/08/26 10:55:31;;;;;;;5.65;3.60;;;16.50;99.10;;;;;;5082478;28;20203;-82
2021/08/26 10:58:23;;;;;;;8.40;4.78;;;16.70;98.40;;;;;;5083382;28;20175;-82
2021/08/26 11:00:51;;;;;;;7.35;4.72;;;16.90;98.70;;;;;;5083272;28;20175;-84
2021/08/26 11:03:35;;;;;;;9.32;4.00;;;17.10;97.40;;;;;;5083441;28;20654;-82
2021/08/26 11:06:32;;;;;;;5.70;3.80;;;17.40;96.10;;;;;;5082976;28;20171;-83
2021/08/26 11:09:18;;;;;;;8.02;4.45;;;17.60;95.50;;;;;;5084309;28;20210;-82
2021/08/26 11:11:47;;;;;;;8.35;4.43;;;18.00;94.60;;;;;;5083341;28;20199;-82
2021/08/26 11:14:13;;;;;;;6.43;3.85;;;18.50;93.20;;;;;;5082987;28;20558;-82
2021/08/26 11:16:48;;;;;;;7.80;3.70;;;18.90;90.60;;;;;;5082586;28;20172;-81
2021/08/26 11:19:16;;;;;;;8.25;4.22;;;19.10;84.90;;;;;;5082928;28;20405;-82
2021/08/26 11:21:45;;;;;;;7.85;4.47;;;19.20;86.60;;;;;;5082934;28;20192;-82
2021/08/26 11:24:20;;;;;;;8.13;3.90;;;19.30;85.10;;;;;;5082991;28;20184;-82
2021/08/26 11:26:54;;;;;;;6.40;4.32;;;19.50;84.20;;;;;;5083422;28;20160;-82
2021/08/26 11:29:23;;;;;;;8.43;4.95;;;19.50;83.00;;;;;;5083396;28;20166;-81
2021/08/26 11:31:55;;;;;;;6.88;4.65;;;19.40;82.40;;;;;;5083562;28;20176;-81
2021/08/26 11:34:44;;;;;;;7.70;4.55;;;19.50;80.60;;;;;;5084169;28;20202;-81
2021/08/26 11:37:25;;;;;;;12.60;4.82;;;19.60;83.00;;;;;;5082444;28;20174;-82
2021/08/26 11:40:00;;;;;;;13.52;5.50;;;19.60;77.60;;;;;;5082556;28;20178;-82
2021/08/26 11:42:49;;;;;;;10.05;5.35;;;19.50;77.70;;;;;;5083322;28;20546;-82
2021/08/26 11:45:17;;;;;;;11.52;5.03;;;19.50;77.30;;;;;;5082645;28;20199;-81
2021/08/26 11:48:00;;;;;;;11.05;4.68;;;19.30;78.90;;;;;;5082513;28;20191;-81
2021/08/26 11:50:30;;;;;;;15.95;5.85;;;19.20;78.90;;;;;;5082066;28;20167;-82
2021/08/26 11:53:03;;;;;;;10.50;5.15;;;19.10;79.80;;;;;;5082790;28;20172;-81
2021/08/26 11:55:35;;;;;;;9.80;5.55;;;19.00;78.80;;;;;;5082310;28;20252;-81
2021/08/26 11:58:07;;;;;;;12.30;6.13;;;18.90;79.90;;;;;;5082599;28;20229;-81
2021/08/26 12:00:33;;;;;;;12.07;5.32;;;18.80;80.10;;;;;;5082544;28;20190;-81
2021/08/26 12:03:01;;;;;;;11.20;5.72;;;18.70;80.10;;;;;;5083019;28;20531;-82
2021/08/26 12:05:28;;;;;;;12.55;6.00;;;18.70;80.20;;;;;;5086607;28;20213;-82
2021/08/26 12:07:54;;;;;;;13.48;5.30;;;18.60;81.30;;;;;;5083051;28;20532;-81
2021/08/26 12:10:29;;;;;;;16.17;6.25;;;18.60;81.20;;;;;;5081908;28;20194;-81
2021/08/26 12:13:09;;;;;;;17.23;6.03;;;18.60;82.00;;;;;;5083261;28;20206;-82
2021/08/26 12:15:55;;;;;;;13.10;5.55;;;18.40;81.60;;;;;;5082577;28;20276;-82
2021/08/26 12:18:28;;;;;;;16.10;6.38;;;18.30;83.10;;;;;;5082737;28;20218;-81
2021/08/26 12:21:09;;;;;;;13.05;5.65;;;18.30;83.30;;;;;;5081330;28;20187;-82
2021/08/26 12:23:39;;;;;;;12.35;6.20;;;18.40;82.60;;;;;;5077737;28;20167;-82
2021/08/26 12:26:13;;;;;;;12.60;5.97;;;18.50;82.00;;;;;;5078533;28;20167;-82
2021/08/26 12:28:42;;;;;;;14.15;5.78;;;18.50;81.90;;;;;;5078256;28;20538;-83
2021/08/26 12:31:13;;;;;;;10.40;5.75;;;18.60;81.40;;;;;;5078691;28;20701;-83
2021/08/26 12:34:01;;;;;;;10.70;5.40;;;18.60;81.30;;;;;;5080004;28;20307;-81
2021/08/26 12:36:28;;;;;;;15.57;6.68;;;18.60;80.90;;;;;;5077837;28;20180;-82
2021/08/26 12:38:54;;;;;;;11.18;5.60;;;18.80;80.50;;;;;;5078173;28;20175;-82
2021/08/26 12:41:25;;;;;;;14.27;6.30;;;19.10;79.80;;;;;;5079123;28;20192;-82
2021/08/26 12:43:56;;;;;;;14.95;4.72;;;19.40;79.50;;;;;;5077556;28;20194;-82
2021/08/26 12:46:35;;;;;;;9.68;4.78;;;19.80;76.20;;;;;;5077843;28;20648;-82